Rechercher aéroport 
image banner adimage banner adimage banner ad
image banner ad

KEDW - Edwards Afb

Situé à Edwards, United States

ICAO - EDW, IATA -

Données fournies par Airmate  

Information générale

Coordonnées: N34°54'29" W117°53'8"
Élévation : 2311 feet MSL.
Variation magnétique : 12° East
Voir autres Aéroports à California

Données opérationnelles

Special qualification required
Heure actuelle UTC:
Heure actuelle locale:
Météo
METAR: KEDW 251556Z COR 23008KT 60SM SCT120 SCT250 29/04 A2997 RMK AO2A SLP122 T02940041 COR 1604
Voir NOTAMs / SUP AIP / TFR affectant cet aéroport [VIEW]
Fréquences de communication: [VIEW]

Pistes:

Identifiant RWYQFULongueur (ft)Largeur (ft)SurfaceLDA (ft)
0221119300UNK
2021119300UNK
05L12000200ASPH
23R12000200ASPH
05R58°15024300CONC
23L238°15024300CONC
07800050CONC
25800050CONC

Coordonnées de l'aéroport

Adresse: Edwards United States

Autres services d'aviation

Écoles de pilotage

Edwards Afb Aero Club

Edwards Afb Aero Club
+1(661)275-2376

Vue satellite de KEDW